createdAt,value
2023-03-30T00:02:12.873Z,14.95
2023-03-30T00:04:43.031Z,15.05
2023-03-30T00:07:11.679Z,13.68
2023-03-30T00:09:42.372Z,14.95
2023-03-30T00:12:10.272Z,14.88
2023-03-30T00:14:38.238Z,15.32
2023-03-30T00:17:05.945Z,15.68
2023-03-30T00:19:33.620Z,15.05
2023-03-30T00:22:02.577Z,14.48
2023-03-30T00:24:30.227Z,14.38
2023-03-30T00:26:57.805Z,14.75
2023-03-30T00:29:25.514Z,14.60
2023-03-30T00:31:53.144Z,14.85
2023-03-30T00:34:20.957Z,14.55
2023-03-30T00:36:53.372Z,14.40
2023-03-30T00:39:23.036Z,13.55
2023-03-30T00:41:51.267Z,13.70
2023-03-30T00:44:56.809Z,15.13
2023-03-30T00:47:25.365Z,13.82
2023-03-30T00:49:53.886Z,14.88
2023-03-30T00:52:24.949Z,14.45
2023-03-30T00:54:56.212Z,14.02
2023-03-30T00:57:25.937Z,13.80
2023-03-30T00:59:54.980Z,13.50
2023-03-30T01:02:23.292Z,14.05
2023-03-30T01:04:54.899Z,13.00
2023-03-30T01:07:24.272Z,12.98
2023-03-30T01:09:53.743Z,13.30
2023-03-30T01:12:21.572Z,13.13
2023-03-30T01:14:49.399Z,12.38
2023-03-30T01:17:26.253Z,13.93
2023-03-30T01:20:18.530Z,13.18
2023-03-30T01:23:05.278Z,13.73
2023-03-30T01:25:59.419Z,12.50
2023-03-30T01:28:40.164Z,13.02
2023-03-30T01:31:41.927Z,13.38
2023-03-30T01:34:39.699Z,12.93
2023-03-30T01:37:46.487Z,13.57
2023-03-30T01:40:17.539Z,13.60
2023-03-30T01:42:55.450Z,13.02
2023-03-30T01:45:31.608Z,13.10
2023-03-30T01:48:06.998Z,13.07
2023-03-30T01:50:40.850Z,13.77
2023-03-30T01:53:14.250Z,13.75
2023-03-30T01:55:47.797Z,13.98
2023-03-30T01:58:20.382Z,14.07
2023-03-30T02:00:50.952Z,12.55
2023-03-30T02:03:22.087Z,12.38
2023-03-30T02:05:54.251Z,13.57
2023-03-30T02:08:27.093Z,12.52
2023-03-30T02:10:58.624Z,11.98
2023-03-30T02:13:29.070Z,13.43
2023-03-30T02:16:00.492Z,12.98
2023-03-30T02:18:28.152Z,12.52
2023-03-30T02:20:59.295Z,13.05
2023-03-30T02:23:31.872Z,13.63
2023-03-30T02:26:01.271Z,12.75
2023-03-30T02:28:29.191Z,14.20
2023-03-30T02:30:56.994Z,13.48
2023-03-30T02:33:43.016Z,12.82
2023-03-30T02:36:35.867Z,12.77
2023-03-30T02:39:17.876Z,11.80
2023-03-30T02:42:13.959Z,12.18
2023-03-30T02:44:48.622Z,11.68
2023-03-30T02:47:23.784Z,12.27
2023-03-30T02:49:57.586Z,11.93
2023-03-30T02:52:40.576Z,11.18
2023-03-30T02:55:16.117Z,13.05
2023-03-30T02:58:09.504Z,12.30
2023-03-30T03:01:04.231Z,12.30
2023-03-30T03:03:45.831Z,13.48
2023-03-30T03:06:15.546Z,12.18
2023-03-30T03:08:49.616Z,13.88
2023-03-30T03:11:23.910Z,13.90
2023-03-30T03:13:53.432Z,12.68
2023-03-30T03:16:21.320Z,11.82
2023-03-30T03:19:08.837Z,12.75
2023-03-30T03:21:36.676Z,13.25
2023-03-30T03:24:04.649Z,13.38
2023-03-30T03:26:55.582Z,12.70
2023-03-30T03:29:25.671Z,13.35
2023-03-30T03:31:53.877Z,13.80
2023-03-30T03:34:26.039Z,13.73
2023-03-30T03:37:00.859Z,13.00
2023-03-30T03:39:31.294Z,13.23
2023-03-30T03:42:07.095Z,12.77
2023-03-30T03:44:40.572Z,12.50
2023-03-30T03:47:08.303Z,14.65
2023-03-30T03:49:35.995Z,13.38
2023-03-30T03:52:03.685Z,13.57
2023-03-30T03:54:31.460Z,13.77
2023-03-30T03:56:59.885Z,13.90
2023-03-30T03:59:28.042Z,13.90
2023-03-30T04:01:57.121Z,13.45
2023-03-30T04:04:24.809Z,13.15
2023-03-30T04:06:52.873Z,13.15
2023-03-30T04:09:21.545Z,14.13
2023-03-30T04:12:07.282Z,13.93
2023-03-30T04:14:53.254Z,13.93
2023-03-30T04:17:41.913Z,13.43
2023-03-30T04:20:26.854Z,13.93
2023-03-30T04:23:25.763Z,12.95
2023-03-30T04:26:17.631Z,12.18
2023-03-30T04:28:56.230Z,13.02
2023-03-30T04:31:39.406Z,14.68
2023-03-30T04:34:21.671Z,12.85
2023-03-30T04:37:18.237Z,13.68
2023-03-30T04:40:16.016Z,13.60
2023-03-30T04:43:07.106Z,13.40
2023-03-30T04:45:40.689Z,13.02
2023-03-30T04:48:25.326Z,12.95
2023-03-30T04:51:24.044Z,13.23
2023-03-30T04:54:10.108Z,12.50
2023-03-30T04:57:00.701Z,11.68
2023-03-30T04:59:51.952Z,12.77
2023-03-30T05:02:45.510Z,12.60
2023-03-30T05:05:43.044Z,12.60
2023-03-30T05:08:19.980Z,11.88
2023-03-30T05:10:50.201Z,12.68
2023-03-30T05:13:27.169Z,11.23
2023-03-30T05:16:05.538Z,12.13
2023-03-30T05:18:50.809Z,11.82
2023-03-30T05:21:32.478Z,11.95
2023-03-30T05:24:17.229Z,11.65
2023-03-30T05:27:05.048Z,11.13
2023-03-30T05:29:53.297Z,11.27
2023-03-30T05:32:39.923Z,10.70
2023-03-30T05:35:34.471Z,11.68
2023-03-30T05:38:23.391Z,11.88
2023-03-30T05:41:18.415Z,10.82
2023-03-30T05:44:06.544Z,10.40
2023-03-30T05:46:56.843Z,11.02
2023-03-30T05:49:44.742Z,10.25
2023-03-30T05:52:24.876Z,10.82
2023-03-30T05:55:02.863Z,9.32
2023-03-30T05:57:47.211Z,8.52
2023-03-30T06:00:42.445Z,8.77
2023-03-30T06:03:21.038Z,8.75
2023-03-30T06:05:49.082Z,7.70
2023-03-30T06:08:16.658Z,7.75
2023-03-30T06:10:53.345Z,7.70
2023-03-30T06:13:22.516Z,7.03
2023-03-30T06:15:52.590Z,7.70
2023-03-30T06:18:23.084Z,7.60
2023-03-30T06:20:57.305Z,7.50
2023-03-30T06:23:25.333Z,7.50
2023-03-30T06:25:55.934Z,7.45
2023-03-30T06:28:30.996Z,7.13
2023-03-30T06:31:01.228Z,6.90
2023-03-30T06:33:28.916Z,6.68
2023-03-30T06:35:58.979Z,6.88
2023-03-30T06:38:26.660Z,7.53
2023-03-30T06:40:56.729Z,6.43
2023-03-30T06:43:26.873Z,6.35
2023-03-30T06:46:12.668Z,6.43
2023-03-30T06:48:45.437Z,6.57
2023-03-30T06:51:39.215Z,6.05
2023-03-30T06:54:08.104Z,6.35
2023-03-30T06:56:37.969Z,6.15
2023-03-30T06:59:10.931Z,5.72
2023-03-30T07:01:59.961Z,6.00
2023-03-30T07:04:53.798Z,5.55
2023-03-30T07:07:38.113Z,5.75
2023-03-30T07:10:10.315Z,5.00
2023-03-30T07:12:38.594Z,4.88
2023-03-30T07:15:08.727Z,5.00
2023-03-30T07:17:39.401Z,5.10
2023-03-30T07:20:09.159Z,5.55
2023-03-30T07:22:50.031Z,4.60
2023-03-30T07:25:18.398Z,5.28
2023-03-30T07:27:47.740Z,5.00
2023-03-30T07:30:21.734Z,4.47
2023-03-30T07:32:57.738Z,4.32
2023-03-30T07:35:27.019Z,4.80
2023-03-30T07:38:03.250Z,4.40
2023-03-30T07:40:35.613Z,4.25
2023-03-30T07:43:04.934Z,4.55
2023-03-30T07:45:32.681Z,4.60
2023-03-30T07:48:02.024Z,4.60
2023-03-30T07:50:30.787Z,4.22
2023-03-30T07:53:00.753Z,4.60
2023-03-30T07:55:28.681Z,4.43
2023-03-30T07:58:03.300Z,4.07
2023-03-30T08:00:32.496Z,4.47
2023-03-30T08:03:20.185Z,4.57
2023-03-30T08:05:53.903Z,4.43
2023-03-30T08:08:22.991Z,4.63
2023-03-30T08:10:51.459Z,4.97
2023-03-30T08:13:21.678Z,4.47
2023-03-30T08:15:50.725Z,4.22
2023-03-30T08:18:19.771Z,4.40
2023-03-30T08:20:51.553Z,4.47
2023-03-30T08:23:19.920Z,4.18
2023-03-30T08:25:51.339Z,3.80
2023-03-30T08:28:19.272Z,3.78
2023-03-30T08:30:47.235Z,4.68
2023-03-30T08:33:15.796Z,3.65
2023-03-30T08:35:47.353Z,4.30
2023-03-30T08:38:17.559Z,3.97
2023-03-30T08:40:47.642Z,3.65
2023-03-30T08:43:41.881Z,4.15
2023-03-30T08:46:13.276Z,3.50
2023-03-30T08:48:42.858Z,4.20
2023-03-30T08:51:21.874Z,3.50
2023-03-30T08:53:53.460Z,4.03
2023-03-30T08:56:24.358Z,3.28
2023-03-30T08:59:00.954Z,4.10
2023-03-30T09:01:34.737Z,3.95
2023-03-30T09:04:09.507Z,3.47
2023-03-30T09:06:48.260Z,3.88
2023-03-30T09:09:19.245Z,3.75
2023-03-30T09:11:49.176Z,3.92
2023-03-30T09:14:26.994Z,3.22
2023-03-30T09:17:01.660Z,4.10
2023-03-30T09:19:35.994Z,3.78
2023-03-30T09:22:06.894Z,3.42
2023-03-30T09:24:35.667Z,4.15
2023-03-30T09:27:09.087Z,4.05
2023-03-30T09:29:42.674Z,4.20
2023-03-30T09:32:15.126Z,3.90
2023-03-30T09:34:47.367Z,3.60
2023-03-30T09:37:18.939Z,3.58
2023-03-30T09:39:47.089Z,3.30
2023-03-30T09:42:23.693Z,4.47
2023-03-30T09:44:53.969Z,4.00
2023-03-30T09:47:25.953Z,4.18
2023-03-30T09:49:58.640Z,3.05
2023-03-30T09:52:29.018Z,3.55
2023-03-30T09:54:57.276Z,3.85
2023-03-30T09:57:27.955Z,4.03
2023-03-30T09:59:56.825Z,4.57
2023-03-30T10:02:27.808Z,5.25
2023-03-30T10:04:58.285Z,3.35
2023-03-30T10:07:29.089Z,3.38
2023-03-30T10:09:59.057Z,3.10
2023-03-30T10:12:28.077Z,3.10
2023-03-30T10:14:56.929Z,2.58
2023-03-30T10:17:26.919Z,3.47
2023-03-30T10:20:07.216Z,2.90
2023-03-30T10:22:51.599Z,3.50
2023-03-30T10:25:23.273Z,3.33
2023-03-30T10:27:53.511Z,3.53
2023-03-30T10:30:24.650Z,3.20
2023-03-30T10:32:54.157Z,2.75
2023-03-30T10:35:24.612Z,3.17
2023-03-30T10:37:56.031Z,2.88
2023-03-30T10:40:28.508Z,2.80
2023-03-30T10:42:58.503Z,3.75
2023-03-30T10:45:33.608Z,4.20
2023-03-30T10:48:12.831Z,3.60
2023-03-30T10:50:49.741Z,6.07
2023-03-30T10:53:32.460Z,2.72
2023-03-30T10:56:10.883Z,2.80
2023-03-30T10:58:54.093Z,3.35
2023-03-30T11:01:30.679Z,5.80
2023-03-30T11:04:12.787Z,3.83
2023-03-30T11:06:45.572Z,2.88
2023-03-30T11:09:19.254Z,2.80
2023-03-30T11:11:52.370Z,3.95
2023-03-30T11:14:24.043Z,2.10
2023-03-30T11:16:57.301Z,2.70
2023-03-30T11:19:27.777Z,2.40
2023-03-30T11:22:03.477Z,2.33
2023-03-30T11:24:33.767Z,2.80
2023-03-30T11:27:10.426Z,3.22
2023-03-30T11:29:42.931Z,2.00
2023-03-30T11:32:31.008Z,1.20
2023-03-30T11:35:04.914Z,1.00
2023-03-30T11:37:38.325Z,1.30
2023-03-30T11:40:17.214Z,1.23
2023-03-30T11:42:45.683Z,1.25
2023-03-30T11:45:37.445Z,1.70
2023-03-30T11:48:18.467Z,1.33
2023-03-30T11:51:01.579Z,1.20
2023-03-30T11:53:34.888Z,1.38
2023-03-30T11:56:08.328Z,1.33
2023-03-30T11:58:37.999Z,0.90
2023-03-30T12:01:27.310Z,1.00
2023-03-30T12:04:00.637Z,1.02
2023-03-30T12:06:31.640Z,1.50
2023-03-30T12:09:21.070Z,1.55
2023-03-30T12:11:53.249Z,1.42
2023-03-30T12:14:40.526Z,1.45
2023-03-30T12:17:18.085Z,1.80
2023-03-30T12:19:56.685Z,2.53
2023-03-30T12:22:31.163Z,2.75
2023-03-30T12:25:04.861Z,2.63
2023-03-30T12:27:38.816Z,3.53
2023-03-30T12:30:15.011Z,2.63
2023-03-30T12:33:00.279Z,3.08
2023-03-30T12:35:56.545Z,2.63
2023-03-30T12:38:25.949Z,3.45
2023-03-30T12:41:14.038Z,3.63
2023-03-30T12:43:53.124Z,2.95
2023-03-30T12:46:26.620Z,2.95
2023-03-30T12:49:05.622Z,2.88
2023-03-30T12:51:52.071Z,3.83
2023-03-30T12:54:35.682Z,3.03
2023-03-30T12:57:14.531Z,2.35
2023-03-30T13:00:07.196Z,2.50
2023-03-30T13:02:51.714Z,2.00
2023-03-30T13:05:21.712Z,2.50
2023-03-30T13:07:51.131Z,2.10
2023-03-30T13:10:42.508Z,2.03
2023-03-30T13:13:22.749Z,2.38
2023-03-30T13:15:54.553Z,2.15
2023-03-30T13:18:34.144Z,1.77
2023-03-30T13:21:16.616Z,2.20
2023-03-30T13:23:45.638Z,2.00
2023-03-30T13:26:34.616Z,2.00
2023-03-30T13:29:11.198Z,1.83
2023-03-30T13:31:50.328Z,1.90
2023-03-30T13:34:30.350Z,1.85
2023-03-30T13:37:04.521Z,1.20
2023-03-30T13:39:41.771Z,1.58
2023-03-30T13:42:34.910Z,1.70
2023-03-30T13:45:10.338Z,2.00
2023-03-30T13:47:57.407Z,1.90
2023-03-30T13:50:27.946Z,1.50
2023-03-30T13:52:58.533Z,1.60
2023-03-30T13:55:33.109Z,1.60
2023-03-30T13:58:05.402Z,1.70
2023-03-30T14:00:45.245Z,1.30
2023-03-30T14:03:33.731Z,1.50
2023-03-30T14:06:04.609Z,1.00
2023-03-30T14:08:38.185Z,1.40
2023-03-30T14:11:15.273Z,1.27
2023-03-30T14:13:43.862Z,1.38
2023-03-30T14:16:17.708Z,1.55
2023-03-30T14:18:46.842Z,1.05
2023-03-30T14:21:17.860Z,1.23
2023-03-30T14:23:49.702Z,1.23
2023-03-30T14:26:19.868Z,1.42
2023-03-30T14:28:47.731Z,1.20
2023-03-30T14:31:17.671Z,1.45
2023-03-30T14:33:47.076Z,1.65
2023-03-30T14:36:17.288Z,1.20
2023-03-30T14:38:47.897Z,1.25
2023-03-30T14:41:19.204Z,1.50
2023-03-30T14:43:53.545Z,1.67
2023-03-30T14:46:22.220Z,1.23
2023-03-30T14:48:51.434Z,1.10
2023-03-30T14:51:25.003Z,1.05
2023-03-30T14:53:53.781Z,1.35
2023-03-30T14:56:23.037Z,1.13
2023-03-30T14:58:52.563Z,1.45
2023-03-30T15:01:30.799Z,1.98
2023-03-30T15:04:02.779Z,1.08
2023-03-30T15:06:31.469Z,1.50
2023-03-30T15:09:01.515Z,1.38
2023-03-30T15:11:33.081Z,1.20
2023-03-30T15:14:08.291Z,1.70
2023-03-30T15:16:37.405Z,1.40
2023-03-30T15:19:11.832Z,1.90
2023-03-30T15:21:40.627Z,1.27
2023-03-30T15:24:13.512Z,1.25
2023-03-30T15:26:46.312Z,1.42
2023-03-30T15:29:16.794Z,1.45
2023-03-30T15:31:44.922Z,1.90
2023-03-30T15:34:17.978Z,1.60
2023-03-30T15:36:46.420Z,1.60
2023-03-30T15:39:21.018Z,1.58
2023-03-30T15:41:51.086Z,1.33
2023-03-30T15:44:20.319Z,2.42
2023-03-30T15:46:50.430Z,1.25
2023-03-30T15:49:23.239Z,1.13
2023-03-30T15:51:52.867Z,1.40
2023-03-30T15:54:24.108Z,1.30
2023-03-30T15:56:57.454Z,1.90
2023-03-30T15:59:31.226Z,1.70
2023-03-30T16:02:03.386Z,1.90
2023-03-30T16:04:33.519Z,2.33
2023-03-30T16:07:02.026Z,2.05
2023-03-30T16:09:29.753Z,1.60
2023-03-30T16:11:59.409Z,2.22
2023-03-30T16:14:27.162Z,2.22
2023-03-30T16:16:54.866Z,1.38
2023-03-30T16:19:22.784Z,2.30
2023-03-30T16:21:52.991Z,2.05
2023-03-30T16:24:20.945Z,1.63
2023-03-30T16:26:48.582Z,1.70
2023-03-30T16:29:20.273Z,2.53
2023-03-30T16:31:48.077Z,1.98
2023-03-30T16:34:15.862Z,2.53
2023-03-30T16:36:43.957Z,2.58
2023-03-30T16:39:18.236Z,3.13
2023-03-30T16:41:46.601Z,2.05
2023-03-30T16:44:14.199Z,2.38
2023-03-30T16:46:42.660Z,2.38
2023-03-30T16:49:13.317Z,2.33
2023-03-30T16:51:41.144Z,2.28
2023-03-30T16:54:19.511Z,2.28
2023-03-30T16:56:56.557Z,3.38
2023-03-30T16:59:26.669Z,2.35
2023-03-30T17:01:54.268Z,2.53
2023-03-30T17:04:21.877Z,2.60
2023-03-30T17:06:49.800Z,2.38
2023-03-30T17:09:19.490Z,2.42
2023-03-30T17:11:48.666Z,1.85
2023-03-30T17:14:20.008Z,2.80
2023-03-30T17:16:47.777Z,2.15
2023-03-30T17:19:15.780Z,3.30
2023-03-30T17:21:43.852Z,2.20
2023-03-30T17:24:12.834Z,2.22
2023-03-30T17:26:41.824Z,2.63
2023-03-30T17:29:10.199Z,2.42
2023-03-30T17:31:39.337Z,2.38
2023-03-30T17:34:07.668Z,2.67
2023-03-30T17:36:35.793Z,2.17
2023-03-30T17:39:04.814Z,2.13
2023-03-30T17:41:34.248Z,3.00
2023-03-30T17:44:01.961Z,2.38
2023-03-30T17:46:29.657Z,2.60
2023-03-30T17:48:59.846Z,3.33
2023-03-30T17:51:27.471Z,2.70
2023-03-30T17:53:55.189Z,2.42
2023-03-30T17:56:22.821Z,2.47
2023-03-30T17:58:53.026Z,2.55
2023-03-30T18:01:20.987Z,2.47
2023-03-30T18:03:48.685Z,3.55
2023-03-30T18:06:18.220Z,2.40
2023-03-30T18:08:45.954Z,2.28
2023-03-30T18:11:13.582Z,3.92
2023-03-30T18:13:41.206Z,3.50
2023-03-30T18:16:12.589Z,3.90
2023-03-30T18:18:40.313Z,3.38
2023-03-30T18:21:11.393Z,2.83
2023-03-30T18:23:40.349Z,2.47
2023-03-30T18:26:12.146Z,2.30
2023-03-30T18:28:43.319Z,2.50
2023-03-30T18:31:11.586Z,3.10
2023-03-30T18:33:40.194Z,2.97
2023-03-30T18:36:12.851Z,3.22
2023-03-30T18:38:42.572Z,3.25
2023-03-30T18:41:12.497Z,2.85
2023-03-30T18:43:40.235Z,3.15
2023-03-30T18:46:08.169Z,3.28
2023-03-30T18:48:35.949Z,3.45
2023-03-30T18:51:03.602Z,3.65
2023-03-30T18:53:31.219Z,3.10
2023-03-30T18:56:01.452Z,3.25
2023-03-30T18:58:33.440Z,2.60
2023-03-30T19:01:01.888Z,3.20
2023-03-30T19:03:30.099Z,3.40
2023-03-30T19:05:58.357Z,3.30
2023-03-30T19:08:27.175Z,3.25
2023-03-30T19:10:56.052Z,3.30
2023-03-30T19:13:27.334Z,4.18
2023-03-30T19:15:55.457Z,4.82
2023-03-30T19:18:23.412Z,4.95
2023-03-30T19:20:52.021Z,4.10
2023-03-30T19:23:21.615Z,3.85
2023-03-30T19:25:49.829Z,3.60
2023-03-30T19:28:18.139Z,4.05
2023-03-30T19:30:48.167Z,3.50
2023-03-30T19:33:19.604Z,3.60
2023-03-30T19:35:47.542Z,4.45
2023-03-30T19:38:16.194Z,4.10
2023-03-30T19:40:44.152Z,4.82
2023-03-30T19:43:12.242Z,4.47
2023-03-30T19:45:40.198Z,4.35
2023-03-30T19:48:09.608Z,4.13
2023-03-30T19:50:38.433Z,3.83
2023-03-30T19:53:06.082Z,3.95
2023-03-30T19:55:33.731Z,4.07
2023-03-30T19:58:01.362Z,4.93
2023-03-30T20:00:31.300Z,4.18
2023-03-30T20:02:59.174Z,4.50
2023-03-30T20:05:28.205Z,3.60
2023-03-30T20:07:57.552Z,3.40
2023-03-30T20:10:26.857Z,3.83
2023-03-30T20:12:55.034Z,3.33
2023-03-30T20:15:24.847Z,4.13
2023-03-30T20:17:56.297Z,4.00
2023-03-30T20:20:25.268Z,4.10
2023-03-30T20:22:56.624Z,3.58
2023-03-30T20:25:24.988Z,3.72
2023-03-30T20:27:52.770Z,3.53
2023-03-30T20:30:21.186Z,3.28
2023-03-30T20:33:00.038Z,3.83
2023-03-30T20:35:35.725Z,4.45
2023-03-30T20:38:05.041Z,5.45
2023-03-30T20:40:32.922Z,4.45
2023-03-30T20:43:03.385Z,3.22
2023-03-30T20:45:31.849Z,4.45
2023-03-30T20:48:05.943Z,4.30
2023-03-30T20:50:34.666Z,4.47
2023-03-30T20:53:03.787Z,4.47
2023-03-30T20:55:34.384Z,4.57
2023-03-30T20:58:02.054Z,3.75
2023-03-30T21:00:29.715Z,4.72
2023-03-30T21:02:57.368Z,4.82
2023-03-30T21:05:25.081Z,3.20
2023-03-30T21:07:53.985Z,4.53
2023-03-30T21:10:23.026Z,3.90
2023-03-30T21:12:50.724Z,3.85
2023-03-30T21:15:19.004Z,4.50
2023-03-30T21:17:46.665Z,4.28
2023-03-30T21:20:15.949Z,3.85
2023-03-30T21:22:43.538Z,4.57
2023-03-30T21:25:12.752Z,5.45
2023-03-30T21:27:41.700Z,4.80
2023-03-30T21:30:12.127Z,4.55
2023-03-30T21:32:39.745Z,4.88
2023-03-30T21:35:07.832Z,9.25
2023-03-30T21:37:35.423Z,4.95
2023-03-30T21:40:03.208Z,5.68
2023-03-30T21:42:30.834Z,5.20
2023-03-30T21:44:59.802Z,5.05
2023-03-30T21:47:27.403Z,5.53
2023-03-30T21:49:55.024Z,5.53
2023-03-30T21:52:22.547Z,5.43
2023-03-30T21:54:50.239Z,4.63
2023-03-30T21:57:17.873Z,5.60
2023-03-30T21:59:45.496Z,5.72
2023-03-30T22:02:14.555Z,5.60
2023-03-30T22:04:43.890Z,6.10
2023-03-30T22:07:12.043Z,5.15
2023-03-30T22:09:39.737Z,5.22
2023-03-30T22:12:08.060Z,5.10
2023-03-30T22:14:36.094Z,4.82
2023-03-30T22:17:03.720Z,6.10
2023-03-30T22:19:34.357Z,5.25
2023-03-30T22:22:01.908Z,7.28
2023-03-30T22:24:29.721Z,6.70
2023-03-30T22:26:57.336Z,6.55
2023-03-30T22:29:24.944Z,6.05
2023-03-30T22:31:55.794Z,7.05
2023-03-30T22:34:23.470Z,6.63
2023-03-30T22:36:52.825Z,7.60
2023-03-30T22:39:20.997Z,6.63
2023-03-30T22:41:48.675Z,7.20
2023-03-30T22:44:17.763Z,5.75
2023-03-30T22:46:45.680Z,5.72
2023-03-30T22:49:14.096Z,6.60
2023-03-30T22:51:52.439Z,7.28
2023-03-30T22:54:22.400Z,5.45
2023-03-30T22:56:50.013Z,8.07
2023-03-30T22:59:17.797Z,6.95
2023-03-30T23:01:45.652Z,5.65
2023-03-30T23:04:13.429Z,5.82
2023-03-30T23:06:41.072Z,7.68
2023-03-30T23:09:08.742Z,7.22
2023-03-30T23:11:37.674Z,6.43
2023-03-30T23:14:05.905Z,6.03
2023-03-30T23:16:35.905Z,6.28
2023-03-30T23:19:05.280Z,6.60
2023-03-30T23:21:35.942Z,6.38
2023-03-30T23:24:05.829Z,5.60
2023-03-30T23:26:33.906Z,6.75
2023-03-30T23:29:03.413Z,6.15
2023-03-30T23:31:31.640Z,6.25
2023-03-30T23:33:59.442Z,7.13
2023-03-30T23:36:28.021Z,6.35
2023-03-30T23:38:55.973Z,6.47
2023-03-30T23:41:23.933Z,6.07
2023-03-30T23:43:52.565Z,5.95
2023-03-30T23:46:21.599Z,5.68
2023-03-30T23:48:49.215Z,5.82
2023-03-30T23:51:16.838Z,6.25
2023-03-30T23:53:44.467Z,5.28
2023-03-30T23:56:13.838Z,5.95
2023-03-30T23:58:42.557Z,5.20
